Home > Products > Valid Products > TAF

000
FTUS45 KPSR 011122
TAFIWA
TAF
KIWA 011122Z 0112/0212 12005KT P6SM FEW250
     FM011800 22010KT P6SM FEW250
      TEMPO 0121/0201 25010G18KT
     FM020500 25006KT P6SM FEW250
     FM020800 14005KT P6SM BKN250
      AMD LTD TO CLD VIS AND WIND TIL 011300=



000
FTUS45 KPSR 011122
TAFIWA
TAF
KIWA 011122Z 0112/0212 12005KT P6SM FEW250
     FM011800 22010KT P6SM FEW250
      TEMPO 0121/0201 25010G18KT
     FM020500 25006KT P6SM FEW250
     FM020800 14005KT P6SM BKN250
      AMD LTD TO CLD VIS AND WIND TIL 011300=



000
FTUS45 KPSR 011122
TAFIPL
TAF
KIPL 011122Z 0112/0212 30008KT P6SM FEW250
     FM020300 27014KT P6SM FEW250
     FM020900 27009KT P6SM BKN250=



000
FTUS45 KPSR 011122
TAFPHX
TAF
KPHX 011122Z 0112/0212 10005KT P6SM FEW250
     FM011800 22012KT P6SM FEW250
      TEMPO 0121/0201 25012G22KT
     FM020500 25006KT P6SM FEW250
     FM020800 VRB05KT P6SM BKN250=



000
FTUS45 KPSR 011122
TAFBLH
TAF
KBLH 011122Z 0112/0212 26006KT P6SM FEW250
     FM020300 25014KT P6SM FEW250
     FM020800 32005KT P6SM BKN250=



000
FTUS45 KPSR 010909 AAA
TAFBLH
TAF AMD
KBLH 010909Z 0109/0206 29006KT P6SM FEW250
     FM020300 25014KT P6SM FEW250=



000
FTUS45 KPSR 010908 AAA
TAFIPL
TAF AMD
KIPL 010908Z 0109/0206 30008KT P6SM FEW250
     FM020300 27014KT P6SM FEW250=



000
FTUS45 KPSR 010905 AAA
TAFIWA
TAF AMD
KIWA 010905Z 0109/0206 12005KT P6SM FEW250
     FM011800 22010KT P6SM FEW250
      TEMPO 0121/0201 25010G18KT
     FM020500 25006KT P6SM FEW250
      AMD LTD TO CLD VIS AND WIND TIL 011300=



000
FTUS45 KPSR 010905 AAA
TAFIWA
TAF AMD
KIWA 010905Z 0109/0206 12005KT P6SM FEW250
     FM011800 22010KT P6SM FEW250
      TEMPO 0121/0201 25010G18KT
     FM020500 25006KT P6SM FEW250
      AMD LTD TO CLD VIS AND WIND TIL 011300=



000
FTUS45 KPSR 010905 AAA
TAFIWA
TAF AMD
KIWA 010905Z 0109/0206 12005KT P6SM FEW250
     FM011800 22010KT P6SM FEW250
      TEMPO 0121/0201 25010G18KT
     FM020500 25006KT P6SM FEW250
      AMD LTD TO CLD VIS AND WIND TIL 011300=



000
FTUS45 KPSR 010905 AAA
TAFIWA
TAF AMD
KIWA 010905Z 0109/0206 12005KT P6SM FEW250
     FM011800 22010KT P6SM FEW250
      TEMPO 0121/0201 25010G18KT
     FM020500 25006KT P6SM FEW250
      AMD LTD TO CLD VIS AND WIND TIL 011300=



000
FTUS45 KPSR 010903 AAA
TAFPHX
TAF AMD
KPHX 010903Z 0109/0206 12005KT P6SM FEW250
     FM011800 22012KT P6SM FEW250
      TEMPO 0121/0201 25012G22KT
     FM020500 25006KT P6SM FEW250=



000
FTUS45 KPSR 010903 AAA
TAFPHX
TAF AMD
KPHX 010903Z 0109/0206 12005KT P6SM FEW250
     FM011800 22012KT P6SM FEW250
      TEMPO 0121/0201 25012G22KT
     FM020500 25006KT P6SM FEW250=



000
FTUS45 KPSR 010529
TAFIWA
TAF
KIWA 010529Z 0106/0206 17010KT P6SM FEW250
     FM020000 27012G20KT P6SM FEW250=



000
FTUS45 KPSR 010529
TAFPHX
TAF
KPHX 010529Z 0106/0206 25009KT P6SM FEW120 SCT250
     FM010700 16012G20KT P6SM FEW250
     FM020000 27012G20KT P6SM FEW250=



000
FTUS45 KPSR 010529
TAFIWA
TAF
KIWA 010529Z 0106/0206 17010KT P6SM FEW250
     FM020000 27012G20KT P6SM FEW250=



000
FTUS45 KPSR 010529
TAFIPL
TAF
KIPL 010529Z 0106/0206 27008KT P6SM FEW250=



000
FTUS45 KPSR 010529
TAFBLH
TAF
KBLH 010529Z 0106/0206 21010KT P6SM FEW250
     FM011100 30008KT P6SM SKC=



000
FTUS45 KPSR 010448 AAA
TAFBLH
TAF AMD
KBLH 010448Z 0105/0124 22008KT P6SM FEW250
     FM011100 31008KT P6SM SKC=



000
FTUS45 KPSR 010236 AAA
TAFPHX
TAF AMD
KPHX 010236Z 0103/0124 25012KT P6SM FEW120 SCT250
     FM010700 14012KT P6SM FEW250=



000
FTUS45 KPSR 312331
TAFIWA
TAF
KIWA 312331Z 0100/0124 26008KT P6SM SCT250
      TEMPO 0100/0102 27012G20KT
     FM010300 23005KT P6SM SCT250
     FM010600 13010KT P6SM FEW250=



000
FTUS45 KPSR 312331
TAFPHX
TAF
KPHX 312331Z 0100/0124 25012KT P6SM FEW120 SCT250
      TEMPO 0100/0102 27014G24KT
     FM010700 10012KT P6SM FEW250=



000
FTUS45 KPSR 312331
TAFIWA
TAF
KIWA 312331Z 0100/0124 26008KT P6SM SCT250
      TEMPO 0100/0102 27012G20KT
     FM010300 23005KT P6SM SCT250
     FM010600 13010KT P6SM FEW250=



000
FTUS45 KPSR 312331
TAFIPL
TAF
KIPL 312331Z 0100/0124 26012KT P6SM SCT250
     FM010100 26013KT P6SM FEW250
     FM011000 28006KT P6SM FEW250=



000
FTUS45 KPSR 312331
TAFBLH
TAF
KBLH 312331Z 0100/0124 22012G22KT P6SM FEW250
     FM011100 31008KT P6SM SKC=



000
FTUS45 KPSR 312331
TAFPHX
TAF
KPHX 312331Z 0100/0124 25012KT P6SM FEW120 SCT250
      TEMPO 0100/0102 27014G24KT
     FM010700 10012KT P6SM FEW250=



000
FTUS45 KPSR 312331
TAFIWA
TAF
KIWA 312331Z 0100/0124 26008KT P6SM SCT250
      TEMPO 0100/0102 27012G20KT
     FM010300 23005KT P6SM SCT250
     FM010600 13010KT P6SM FEW250=



000
FTUS45 KPSR 312331
TAFIPL
TAF
KIPL 312331Z 0100/0124 26012KT P6SM SCT250
     FM010100 26013KT P6SM FEW250
     FM011000 28006KT P6SM FEW250=



000
FTUS45 KPSR 312331
TAFIWA
TAF
KIWA 312331Z 0100/0124 26008KT P6SM SCT250
      TEMPO 0100/0102 27012G20KT
     FM010300 23005KT P6SM SCT250
     FM010600 13010KT P6SM FEW250=



000
FTUS45 KPSR 312331
TAFBLH
TAF
KBLH 312331Z 0100/0124 22012G22KT P6SM FEW250
     FM011100 31008KT P6SM SKC=



000
FTUS45 KPSR 312059 AAA
TAFPHX
TAF AMD
KPHX 312059Z 3121/0118 24008KT P6SM SCT250
      TEMPO 3122/0102 27014G24KT
     FM010700 11012KT P6SM FEW250=



000
FTUS45 KPSR 312059 AAA
TAFPHX
TAF AMD
KPHX 312059Z 3121/0118 24008KT P6SM SCT250
      TEMPO 3122/0102 27014G24KT
     FM010700 11012KT P6SM FEW250=



000
FTUS45 KPSR 311723
TAFIPL
TAF
KIPL 311723Z 3118/0118 14006KT P6SM FEW250
     FM312100 21012KT P6SM SCT250
     FM010100 24014G22KT P6SM FEW250
     FM011000 28006KT P6SM FEW250=



000
FTUS45 KPSR 311723
TAFBLH
TAF
KBLH 311723Z 3118/0118 20010KT P6SM FEW250
      TEMPO 3120/3124 20012G22KT
     FM011100 31006KT P6SM SKC=



000
FTUS45 KPSR 311723
TAFPHX
TAF
KPHX 311723Z 3118/0118 VRB04KT P6SM FEW250
     FM312000 24010KT P6SM SCT250
      TEMPO 3122/0102 27014G24KT
     FM010700 11012KT P6SM FEW250=



000
FTUS45 KPSR 311723
TAFIWA
TAF
KIWA 311723Z 3118/0118 VRB04KT P6SM FEW250
     FM312000 26008KT P6SM SCT250
      TEMPO 3122/0102 27012G20KT
     FM010300 VRB05KT P6SM SCT250
     FM010600 13008KT P6SM FEW250=



000
FTUS45 KPSR 311723
TAFIPL
TAF
KIPL 311723Z 3118/0118 14006KT P6SM FEW250
     FM312100 21012KT P6SM SCT250
     FM010100 24014G22KT P6SM FEW250
     FM011000 28006KT P6SM FEW250=



000
FTUS45 KPSR 311723
TAFBLH
TAF
KBLH 311723Z 3118/0118 20010KT P6SM FEW250
      TEMPO 3120/3124 20012G22KT
     FM011100 31006KT P6SM SKC=



000
FTUS45 KPSR 311723
TAFIWA
TAF
KIWA 311723Z 3118/0118 VRB04KT P6SM FEW250
     FM312000 26008KT P6SM SCT250
      TEMPO 3122/0102 27012G20KT
     FM010300 VRB05KT P6SM SCT250
     FM010600 13008KT P6SM FEW250=



000
FTUS45 KPSR 311723
TAFPHX
TAF
KPHX 311723Z 3118/0118 VRB04KT P6SM FEW250
     FM312000 24010KT P6SM SCT250
      TEMPO 3122/0102 27014G24KT
     FM010700 11012KT P6SM FEW250=



000
FTUS45 KPSR 311723
TAFIWA
TAF
KIWA 311723Z 3118/0118 VRB04KT P6SM FEW250
     FM312000 26008KT P6SM SCT250
      TEMPO 3122/0102 27012G20KT
     FM010300 VRB05KT P6SM SCT250
     FM010600 13008KT P6SM FEW250=



000
FTUS45 KPSR 311723
TAFIWA
TAF
KIWA 311723Z 3118/0118 VRB04KT P6SM FEW250
     FM312000 26008KT P6SM SCT250
      TEMPO 3122/0102 27012G20KT
     FM010300 VRB05KT P6SM SCT250
     FM010600 13008KT P6SM FEW250=



000
FTUS45 KPSR 311452 AAA
TAFPHX
TAF AMD
KPHX 311452Z 3115/0112 11008KT P6SM FEW250
     FM311800 20006KT P6SM FEW250
     FM312100 27014KT P6SM SCT250
      TEMPO 3122/0101 27014G24KT
     FM010300 25010KT P6SM SCT250
     FM010700 14005KT P6SM FEW250=



000
FTUS45 KPSR 311121
TAFPHX
TAF
KPHX 311121Z 3112/0112 14005KT P6SM FEW250
     FM311800 20006KT P6SM FEW250
     FM312100 27014KT P6SM SCT250
      TEMPO 3122/0101 27014G24KT
     FM010300 25010KT P6SM SCT250
     FM010700 14005KT P6SM FEW250=



000
FTUS45 KPSR 311121
TAFBLH
TAF
KBLH 311121Z 3112/0112 VRB05KT P6SM FEW250
     FM311800 19010KT P6SM FEW250
     FM312100 21015G25KT P6SM FEW250
     FM010200 23012KT P6SM FEW250
     FM011000 28006KT P6SM FEW250=



000
FTUS45 KPSR 311121
TAFIWA
TAF
KIWA 311121Z 3112/0112 14005KT P6SM FEW250
     FM311800 25007KT P6SM FEW250
     FM312100 27012KT P6SM SCT250
      TEMPO 3122/0101 27012G20KT
     FM010300 25008KT P6SM SCT250
     FM010700 14005KT P6SM FEW250
      AMD LTD TO CLD VIS AND WIND TIL 311300=



000
FTUS45 KPSR 311121
TAFIWA
TAF
KIWA 311121Z 3112/0112 14005KT P6SM FEW250
     FM311800 25007KT P6SM FEW250
     FM312100 27012KT P6SM SCT250
      TEMPO 3122/0101 27012G20KT
     FM010300 25008KT P6SM SCT250
     FM010700 14005KT P6SM FEW250
      AMD LTD TO CLD VIS AND WIND TIL 311300=



000
FTUS45 KPSR 311121
TAFIPL
TAF
KIPL 311121Z 3112/0112 17005KT P6SM FEW250
     FM312000 25012KT P6SM SCT250
     FM312200 25015G25KT P6SM FEW250
     FM010300 26012KT P6SM FEW250
     FM011000 27007KT P6SM FEW250=



000
FTUS45 KPSR 310902 AAA
TAFPHX
TAF AMD
KPHX 310902Z 3109/0106 12007KT P6SM SCT200
     FM312100 27014KT P6SM FEW120 FEW250
     FM010300 25010KT P6SM FEW250=



000
FTUS45 KPSR 310902 AAA
TAFPHX
TAF AMD
KPHX 310902Z 3109/0106 12007KT P6SM SCT200
     FM312100 27014KT P6SM FEW120 FEW250
     FM010300 25010KT P6SM FEW250=



000
FTUS45 KPSR 310525
TAFIPL
TAF
KIPL 310525Z 3106/0106 25005KT P6SM FEW250
     FM312100 25015KT P6SM SCT250=



000
FTUS45 KPSR 310525
TAFBLH
TAF
KBLH 310525Z 3106/0106 20005KT P6SM FEW250
     FM312100 19015KT P6SM FEW120 FEW250
     FM010400 21010KT P6SM FEW250=



000
FTUS45 KPSR 310525
TAFIWA
TAF
KIWA 310525Z 3106/0106 12007KT P6SM FEW120 SCT200
     FM312100 26012KT P6SM FEW120 FEW250
     FM010300 25008KT P6SM FEW250=



000
FTUS45 KPSR 310525
TAFPHX
TAF
KPHX 310525Z 3106/0106 12007KT P6SM FEW120 SCT200
     FM312100 27014KT P6SM FEW120 FEW250
     FM010300 25010KT P6SM FEW250=



000
FTUS45 KPSR 310525
TAFIWA
TAF
KIWA 310525Z 3106/0106 12007KT P6SM FEW120 SCT200
     FM312100 26012KT P6SM FEW120 FEW250
     FM010300 25008KT P6SM FEW250=



000
FTUS45 KPSR 310525
TAFIWA
TAF
KIWA 310525Z 3106/0106 12007KT P6SM FEW120 SCT200
     FM312100 26012KT P6SM FEW120 FEW250
     FM010300 25008KT P6SM FEW250=



000
FTUS45 KPSR 310525
TAFIPL
TAF
KIPL 310525Z 3106/0106 25005KT P6SM FEW250
     FM312100 25015KT P6SM SCT250=



000
FTUS45 KPSR 310525
TAFIWA
TAF
KIWA 310525Z 3106/0106 12007KT P6SM FEW120 SCT200
     FM312100 26012KT P6SM FEW120 FEW250
     FM010300 25008KT P6SM FEW250=



000
FTUS45 KPSR 310525
TAFPHX
TAF
KPHX 310525Z 3106/0106 12007KT P6SM FEW120 SCT200
     FM312100 27014KT P6SM FEW120 FEW250
     FM010300 25010KT P6SM FEW250=



000
FTUS45 KPSR 310525
TAFBLH
TAF
KBLH 310525Z 3106/0106 20005KT P6SM FEW250
     FM312100 19015KT P6SM FEW120 FEW250
     FM010400 21010KT P6SM FEW250=



000
FTUS45 KPSR 310233 AAA
TAFPHX
TAF AMD
KPHX 310233Z 3103/3124 30006KT P6SM FEW120 SCT250
     FM310500 12007KT P6SM FEW120 SCT200
     FM312100 27012KT P6SM FEW120 FEW250=



000
FTUS45 KPSR 302324
TAFIWA
TAF
KIWA 302324Z 3100/3124 29007KT P6SM SCT120 BKN250
     FM310400 12007KT P6SM FEW120 SCT200
     FM312100 26012KT P6SM FEW120 FEW250=



000
FTUS45 KPSR 302324
TAFIWA
TAF
KIWA 302324Z 3100/3124 29007KT P6SM SCT120 BKN250
     FM310400 12007KT P6SM FEW120 SCT200
     FM312100 26012KT P6SM FEW120 FEW250=



000
FTUS45 KPSR 302324
TAFBLH
TAF
KBLH 302324Z 3100/3124 18010KT P6SM SKC
     FM310800 VRB04KT P6SM FEW250
     FM312100 19015KT P6SM FEW120 FEW250=



000
FTUS45 KPSR 302324
TAFIPL
TAF
KIPL 302324Z 3100/3124 13005KT P6SM SKC
     FM310200 25005KT P6SM FEW250
     FM312100 25012KT P6SM SCT250=



000
FTUS45 KPSR 302324
TAFPHX
TAF
KPHX 302324Z 3100/3124 29008KT P6SM FEW120 BKN250
     FM310500 12007KT P6SM FEW120 SCT200
     FM312100 27012KT P6SM FEW120 FEW250=



000
FTUS45 KPSR 302101 AAA
TAFPHX
TAF AMD
KPHX 302101Z 3021/3118 VRB04KT P6SM FEW120 BKN200
     FM302200 27007KT P6SM FEW120 SCT200
     FM310600 12007KT P6SM FEW120 SCT200=



000
FTUS45 KPSR 301739
TAFIPL
TAF
KIPL 301739Z 3018/3118 VRB04KT P6SM SKC
     FM302000 13005KT P6SM SKC
     FM310100 25005KT P6SM FEW250=



000
FTUS45 KPSR 301739
TAFBLH
TAF
KBLH 301739Z 3018/3118 18007KT P6SM SKC
     FM310800 VRB04KT P6SM FEW250=



000
FTUS45 KPSR 301739
TAFIWA
TAF
KIWA 301739Z 3018/3118 23005KT P6SM FEW120 BKN200
     FM302200 29007KT P6SM SCT120 SCT200
     FM310400 12007KT P6SM FEW120 SCT200=



000
FTUS45 KPSR 301739
TAFIWA
TAF
KIWA 301739Z 3018/3118 23005KT P6SM FEW120 BKN200
     FM302200 29007KT P6SM SCT120 SCT200
     FM310400 12007KT P6SM FEW120 SCT200=



000
FTUS45 KPSR 301739
TAFIWA
TAF
KIWA 301739Z 3018/3118 23005KT P6SM FEW120 BKN200
     FM302200 29007KT P6SM SCT120 SCT200
     FM310400 12007KT P6SM FEW120 SCT200=



000
FTUS45 KPSR 301739
TAFPHX
TAF
KPHX 301739Z 3018/3118 11006KT P6SM FEW120 BKN200
     FM302100 27007KT P6SM FEW120 SCT200
     FM310700 12007KT P6SM FEW120 SCT200=



000
FTUS45 KPSR 301739
TAFBLH
TAF
KBLH 301739Z 3018/3118 18007KT P6SM SKC
     FM310800 VRB04KT P6SM FEW250=



000
FTUS45 KPSR 301739
TAFIPL
TAF
KIPL 301739Z 3018/3118 VRB04KT P6SM SKC
     FM302000 13005KT P6SM SKC
     FM310100 25005KT P6SM FEW250=



000
FTUS45 KPSR 301739
TAFIWA
TAF
KIWA 301739Z 3018/3118 23005KT P6SM FEW120 BKN200
     FM302200 29007KT P6SM SCT120 SCT200
     FM310400 12007KT P6SM FEW120 SCT200=



000
FTUS45 KPSR 301739
TAFPHX
TAF
KPHX 301739Z 3018/3118 11006KT P6SM FEW120 BKN200
     FM302100 27007KT P6SM FEW120 SCT200
     FM310700 12007KT P6SM FEW120 SCT200=



000
FTUS45 KPSR 301507 AAA
TAFPHX
TAF AMD
KPHX 301507Z 3015/3112 11006KT P6SM FEW120 BKN250
     FM302100 27006KT P6SM FEW120 SCT200
     FM310300 VRB05KT P6SM FEW120 SCT200
     FM310700 12005KT P6SM FEW120 SCT200=



000
FTUS45 KPSR 301121
TAFPHX
TAF
KPHX 301121Z 3012/3112 10006KT P6SM BKN200
     FM302100 25006KT P6SM BKN200
     FM310300 VRB05KT P6SM SCT250
     FM310900 12005KT P6SM FEW250=



000
FTUS45 KPSR 301121
TAFIWA
TAF
KIWA 301121Z 3012/3112 12007KT P6SM BKN200
     FM301900 24006KT P6SM BKN250
     FM310400 12005KT P6SM SCT250
      AMD LTD TO CLD VIS AND WIND TIL 301300=



000
FTUS45 KPSR 301121
TAFIPL
TAF
KIPL 301121Z 3012/3112 25005KT P6SM BKN250
     FM301600 VRB04KT P6SM SCT250
     FM310300 29005KT P6SM FEW250=



000
FTUS45 KPSR 301121
TAFIWA
TAF
KIWA 301121Z 3012/3112 12007KT P6SM BKN200
     FM301900 24006KT P6SM BKN250
     FM310400 12005KT P6SM SCT250
      AMD LTD TO CLD VIS AND WIND TIL 301300=



000
FTUS45 KPSR 301121
TAFIPL
TAF
KIPL 301121Z 3012/3112 25005KT P6SM BKN250
     FM301600 VRB04KT P6SM SCT250
     FM310300 29005KT P6SM FEW250=



000
FTUS45 KPSR 301121
TAFIWA
TAF
KIWA 301121Z 3012/3112 12007KT P6SM BKN200
     FM301900 24006KT P6SM BKN250
     FM310400 12005KT P6SM SCT250
      AMD LTD TO CLD VIS AND WIND TIL 301300=



000
FTUS45 KPSR 301121
TAFBLH
TAF
KBLH 301121Z 3012/3112 34007KT P6SM BKN250
     FM301700 18008KT P6SM SCT250=



000
FTUS45 KPSR 301121
TAFPHX
TAF
KPHX 301121Z 3012/3112 10006KT P6SM BKN200
     FM302100 25006KT P6SM BKN200
     FM310300 VRB05KT P6SM SCT250
     FM310900 12005KT P6SM FEW250=



000
FTUS45 KPSR 301121
TAFIWA
TAF
KIWA 301121Z 3012/3112 12007KT P6SM BKN200
     FM301900 24006KT P6SM BKN250
     FM310400 12005KT P6SM SCT250
      AMD LTD TO CLD VIS AND WIND TIL 301300=



000
FTUS45 KPSR 301121
TAFBLH
TAF
KBLH 301121Z 3012/3112 34007KT P6SM BKN250
     FM301700 18008KT P6SM SCT250=



000
FTUS45 KPSR 300909 AAA
TAFPHX
TAF AMD
KPHX 300909Z 3009/3106 09008KT P6SM BKN200
     FM302100 25006KT P6SM BKN200=



000
FTUS45 KPSR 300520
TAFIWA
TAF
KIWA 300520Z 3006/3106 12007KT P6SM SCT200
     FM301800 24006KT P6SM BKN250
      AMD LTD TO CLD VIS AND WIND TIL 301300=



000
FTUS45 KPSR 300520
TAFPHX
TAF
KPHX 300520Z 3006/3106 32007KT P6SM FEW180 BKN250
     FM300700 11008KT P6SM BKN250
     FM302100 25006KT P6SM BKN250=



000
FTUS45 KPSR 300520
TAFIWA
TAF
KIWA 300520Z 3006/3106 12007KT P6SM SCT200
     FM301800 24006KT P6SM BKN250
      AMD LTD TO CLD VIS AND WIND TIL 301300=



000
FTUS45 KPSR 300520
TAFIWA
TAF
KIWA 300520Z 3006/3106 12007KT P6SM SCT200
     FM301800 24006KT P6SM BKN250
      AMD LTD TO CLD VIS AND WIND TIL 301300=



000
FTUS45 KPSR 300520
TAFIWA
TAF
KIWA 300520Z 3006/3106 12007KT P6SM SCT200
     FM301800 24006KT P6SM BKN250
      AMD LTD TO CLD VIS AND WIND TIL 301300=



000
FTUS45 KPSR 300520
TAFBLH
TAF
KBLH 300520Z 3006/3106 24007KT P6SM OVC250
     FM301700 18008KT P6SM SCT250=



000
FTUS45 KPSR 300520
TAFIPL
TAF
KIPL 300520Z 3006/3106 25007KT P6SM OVC250
     FM301600 VRB04KT P6SM SCT250=



000
FTUS45 KPSR 300520
TAFPHX
TAF
KPHX 300520Z 3006/3106 32007KT P6SM FEW180 BKN250
     FM300700 11008KT P6SM BKN250
     FM302100 25006KT P6SM BKN250=



000
FTUS45 KPSR 300520
TAFBLH
TAF
KBLH 300520Z 3006/3106 24007KT P6SM OVC250
     FM301700 18008KT P6SM SCT250=



000
FTUS45 KPSR 300520
TAFIPL
TAF
KIPL 300520Z 3006/3106 25007KT P6SM OVC250
     FM301600 VRB04KT P6SM SCT250=



000
FTUS45 KPSR 300256 AAA
TAFPHX
TAF AMD
KPHX 300256Z 3003/3024 32007KT P6SM FEW180 BKN250
     FM300700 11010KT P6SM BKN250
     FM302100 25006KT P6SM BKN250=



000
FTUS45 KPSR 292327 CCA
TAFIWA
TAF COR
KIWA 292327Z 3000/3024 27005KT P6SM BKN250
     FM300500 12007KT P6SM BKN250
     FM301800 24006KT P6SM BKN250
      AMD LTD TO CLD VIS AND WIND 3003/3013=



000
FTUS45 KPSR 292327 CCA
TAFIWA
TAF COR
KIWA 292327Z 3000/3024 27005KT P6SM BKN250
     FM300500 12007KT P6SM BKN250
     FM301800 24006KT P6SM BKN250
      AMD LTD TO CLD VIS AND WIND 3003/3013=



000
FTUS45 KPSR 292322
TAFIWA
TAF
KIWA 292322Z 3000/3024 27005KT P6SM BKN250
     FM300500 12007KT P6SM BKN250
     FM301800 24006KT P6SM BKN250=



000
FTUS45 KPSR 292322
TAFPHX
TAF
KPHX 292322Z 3000/3024 27005KT P6SM FEW180 BKN250
     FM300600 11007KT P6SM BKN250
     FM302100 25006KT P6SM BKN250=



000
FTUS45 KPSR 292322
TAFBLH
TAF
KBLH 292322Z 3000/3024 19007KT P6SM BKN250
     FM301000 21005KT P6SM SCT250=



000
FTUS45 KPSR 292322
TAFIPL
TAF
KIPL 292322Z 3000/3024 14006KT P6SM BKN250
     FM300300 25007KT P6SM BKN250
     FM301600 VRB04KT P6SM SCT250=



000
FTUS45 KPSR 292322
TAFIWA
TAF
KIWA 292322Z 3000/3024 27005KT P6SM BKN250
     FM300500 12007KT P6SM BKN250
     FM301800 24006KT P6SM BKN250=



000
FTUS45 KPSR 292322
TAFIPL
TAF
KIPL 292322Z 3000/3024 14006KT P6SM BKN250
     FM300300 25007KT P6SM BKN250
     FM301600 VRB04KT P6SM SCT250=



000
FTUS45 KPSR 292322
TAFBLH
TAF
KBLH 292322Z 3000/3024 19007KT P6SM BKN250
     FM301000 21005KT P6SM SCT250=



000
FTUS45 KPSR 292322
TAFIWA
TAF
KIWA 292322Z 3000/3024 27005KT P6SM BKN250
     FM300500 12007KT P6SM BKN250
     FM301800 24006KT P6SM BKN250=



000
FTUS45 KPSR 292322
TAFPHX
TAF
KPHX 292322Z 3000/3024 27005KT P6SM FEW180 BKN250
     FM300600 11007KT P6SM BKN250
     FM302100 25006KT P6SM BKN250=



000
FTUS45 KPSR 292322
TAFIWA
TAF
KIWA 292322Z 3000/3024 27005KT P6SM BKN250
     FM300500 12007KT P6SM BKN250
     FM301800 24006KT P6SM BKN250=



000
FTUS45 KPSR 292115 AAB
TAFPHX
TAF AMD
KPHX 292115Z 2921/3018 27005KT P6SM BKN250
     FM300600 11006KT P6SM BKN250=



000
FTUS45 KPSR 292111 AAA
TAFPHX
TAF AMD
KPHX 292111Z 2921/3018 21005KT P6SM BKN250
     FM292200 27005KT P6SM BKN250
     FM300600 11006KT P6SM BKN250=



000
FTUS45 KPSR 292111 AAA
TAFPHX
TAF AMD
KPHX 292111Z 2921/3018 21005KT P6SM BKN250
     FM292200 27005KT P6SM BKN250
     FM300600 11006KT P6SM BKN250=



000
FTUS45 KPSR 291724
TAFIPL
TAF
KIPL 291724Z 2918/3018 VRB04KT P6SM BKN250
     FM292100 14005KT P6SM BKN250
     FM300300 25006KT P6SM BKN250=



000
FTUS45 KPSR 291724
TAFIWA
TAF
KIWA 291724Z 2918/3018 VRB03KT P6SM BKN250
     FM292000 27005KT P6SM BKN250
     FM300500 12007KT P6SM BKN250=



000
FTUS45 KPSR 291724
TAFPHX
TAF
KPHX 291724Z 2918/3018 11006KT P6SM BKN250
     FM292000 27005KT P6SM BKN250
     FM300600 11006KT P6SM BKN250=



000
FTUS45 KPSR 291724
TAFIWA
TAF
KIWA 291724Z 2918/3018 VRB03KT P6SM BKN250
     FM292000 27005KT P6SM BKN250
     FM300500 12007KT P6SM BKN250=



000
FTUS45 KPSR 291724
TAFBLH
TAF
KBLH 291724Z 2918/3018 19005KT P6SM BKN250
     FM300900 21005KT P6SM SCT250=



000
FTUS45 KPSR 291724
TAFIPL
TAF
KIPL 291724Z 2918/3018 VRB04KT P6SM BKN250
     FM292100 14005KT P6SM BKN250
     FM300300 25006KT P6SM BKN250=



000
FTUS45 KPSR 291724
TAFBLH
TAF
KBLH 291724Z 2918/3018 19005KT P6SM BKN250
     FM300900 21005KT P6SM SCT250=



000
FTUS45 KPSR 291724
TAFIWA
TAF
KIWA 291724Z 2918/3018 VRB03KT P6SM BKN250
     FM292000 27005KT P6SM BKN250
     FM300500 12007KT P6SM BKN250=



000
FTUS45 KPSR 291724
TAFPHX
TAF
KPHX 291724Z 2918/3018 11006KT P6SM BKN250
     FM292000 27005KT P6SM BKN250
     FM300600 11006KT P6SM BKN250=



000
FTUS45 KPSR 291724
TAFIWA
TAF
KIWA 291724Z 2918/3018 VRB03KT P6SM BKN250
     FM292000 27005KT P6SM BKN250
     FM300500 12007KT P6SM BKN250=



000
FTUS45 KPSR 291437 AAA
TAFPHX
TAF AMD
KPHX 291437Z 2915/3012 11006KT P6SM SCT250
     FM292000 27004KT P6SM BKN250
     FM300600 10006KT P6SM SCT250=



000
FTUS45 KPSR 291437 AAA
TAFPHX
TAF AMD
KPHX 291437Z 2915/3012 11006KT P6SM SCT250
     FM292000 27004KT P6SM BKN250
     FM300600 10006KT P6SM SCT250=



    US Dept of Commerce
    National Oceanic and Atmospheric Administration
    National Weather Service
    1325 East West Highway
    Silver Spring, MD 20910
    Page Author: NWS Internet Services Team
Disclaimer
Information Quality
Credits
Glossary
Privacy Policy
Freedom of Information Act (FOIA)
About Us
Career Opportunities